Bluff Springs, Texas
Current Conditions -  °F | °C
As of 7:53 PM on Sunday 25 Jan 2015 (Local Time) from KAUS Reporting Station
Few Clouds Few Clouds  
Wind Chill: 13°   Ceiling: Unl
Heat Index: 13°   Visibility: 10mi
Dew Point:   Wind: 5mph
Humidity: 40%   Direction: 260°W
Pressure: 30.16"   Gusts: NA
Location:  30.1791°N, 97.7294°W
Report Text: KAUS 260153Z 26004KT 10SM FEW150 13/00 A3016 RMK AO2 SLP217 T01330000
Loading
Personal Weather Stations






























Interactive Weather Map New forecast layout! Learn more

10-Day Weather Forecast

Advertisements
Track Severe Weather on mobile